createdAt,value
2018-08-19T00:00:18.839Z,15.5
2018-08-19T00:01:20.877Z,15.5
2018-08-19T00:02:23.570Z,15.6
2018-08-19T00:03:25.894Z,15.4
2018-08-19T00:04:27.922Z,15.5
2018-08-19T00:05:29.956Z,15.4
2018-08-19T00:06:31.986Z,15.5
2018-08-19T00:07:34.034Z,15.5
2018-08-19T00:08:36.060Z,15.5
2018-08-19T00:09:38.087Z,15.5
2018-08-19T00:10:40.511Z,15.5
2018-08-19T00:11:42.822Z,15.4
2018-08-19T00:12:44.853Z,15.5
2018-08-19T00:13:46.879Z,15.5
2018-08-19T00:14:48.924Z,15.4
2018-08-19T00:15:51.336Z,15.3
2018-08-19T00:16:53.368Z,15.4
2018-08-19T00:17:55.396Z,15.3
2018-08-19T00:18:57.439Z,15.4
2018-08-19T00:19:59.456Z,15.3
2018-08-19T00:21:01.488Z,15.3
2018-08-19T00:22:03.824Z,15.3
2018-08-19T00:23:06.139Z,15.3
2018-08-19T00:24:08.176Z,15.3
2018-08-19T00:25:10.216Z,15.1
2018-08-19T00:26:12.917Z,15.2
2018-08-19T00:27:14.936Z,15.1
2018-08-19T00:28:17.370Z,15.1
2018-08-19T00:29:19.704Z,15.1
2018-08-19T00:30:21.733Z,15.1
2018-08-19T00:31:23.777Z,15.2
2018-08-19T00:32:25.803Z,15.2
2018-08-19T00:33:27.833Z,15.1
2018-08-19T00:34:29.869Z,15.1
2018-08-19T00:35:31.901Z,15.1
2018-08-19T00:36:33.927Z,15.1
2018-08-19T00:37:35.957Z,15.2
2018-08-19T00:38:37.988Z,15.1
2018-08-19T00:39:40.020Z,15.1
2018-08-19T00:40:42.446Z,15.1
2018-08-19T00:41:44.480Z,15.1
2018-08-19T00:42:46.507Z,15.1
2018-08-19T00:43:48.552Z,15.1
2018-08-19T00:44:50.575Z,15.2
2018-08-19T00:45:52.625Z,15.2
2018-08-19T00:46:54.656Z,15.2
2018-08-19T00:47:56.676Z,15.1
2018-08-19T00:48:58.992Z,15.1
2018-08-19T00:50:01.021Z,15.1
2018-08-19T00:51:03.439Z,15.1
2018-08-19T00:52:05.464Z,15
2018-08-19T00:53:07.508Z,15.1
2018-08-19T00:54:09.538Z,15
2018-08-19T00:55:11.607Z,15
2018-08-19T00:56:13.617Z,15
2018-08-19T00:57:15.922Z,15
2018-08-19T00:58:17.955Z,15
2018-08-19T00:59:19.986Z,15
2018-08-19T01:00:22.032Z,14.9
2018-08-19T01:01:24.361Z,15
2018-08-19T01:02:26.391Z,14.9
2018-08-19T01:03:28.811Z,15
2018-08-19T01:04:30.834Z,15
2018-08-19T01:05:33.154Z,15
2018-08-19T01:06:35.189Z,14.9
2018-08-19T01:07:37.215Z,15
2018-08-19T01:08:39.246Z,14.9
2018-08-19T01:09:41.288Z,15
2018-08-19T01:10:43.602Z,15
2018-08-19T01:11:46.019Z,15
2018-08-19T01:12:48.046Z,15
2018-08-19T01:13:50.068Z,15.1
2018-08-19T01:14:52.100Z,15.1
2018-08-19T01:15:54.136Z,15.1
2018-08-19T01:16:56.165Z,15.1
2018-08-19T01:17:58.485Z,15
2018-08-19T01:19:00.516Z,15
2018-08-19T01:20:02.548Z,14.9
2018-08-19T01:21:04.881Z,15
2018-08-19T01:22:06.912Z,14.9
2018-08-19T01:23:09.224Z,15
2018-08-19T01:24:11.252Z,14.9
2018-08-19T01:25:13.290Z,14.9
2018-08-19T01:26:15.316Z,15
2018-08-19T01:27:17.630Z,15
2018-08-19T01:28:19.657Z,14.9
2018-08-19T01:29:21.981Z,14.9
2018-08-19T01:30:23.999Z,15
2018-08-19T01:31:26.038Z,14.8
2018-08-19T01:32:28.065Z,15.1
2018-08-19T01:33:30.105Z,14.9
2018-08-19T01:34:32.129Z,15
2018-08-19T01:35:34.157Z,14.9
2018-08-19T01:36:36.192Z,14.9
2018-08-19T01:37:38.213Z,14.8
2018-08-19T01:38:40.258Z,14.9
2018-08-19T01:39:42.284Z,14.9
2018-08-19T01:40:44.309Z,14.9
2018-08-19T01:41:46.338Z,14.9
2018-08-19T01:42:48.669Z,14.9
2018-08-19T01:43:50.698Z,14.8
2018-08-19T01:44:52.732Z,14.8
2018-08-19T01:45:54.766Z,14.8
2018-08-19T01:46:57.173Z,14.8
2018-08-19T01:47:59.204Z,14.8
2018-08-19T01:49:01.237Z,14.8
2018-08-19T01:50:03.254Z,14.8
2018-08-19T01:51:05.289Z,14.6
2018-08-19T01:52:07.322Z,14.6
2018-08-19T01:53:09.355Z,14.6
2018-08-19T01:54:11.396Z,14.6
2018-08-19T01:55:13.420Z,14.5
2018-08-19T01:56:15.448Z,14.5
2018-08-19T01:57:17.482Z,14.7
2018-08-19T01:58:19.830Z,14.7
2018-08-19T01:59:21.854Z,14.7
2018-08-19T02:00:23.911Z,14.7
2018-08-19T02:01:25.913Z,14.6
2018-08-19T02:02:27.933Z,14.6
2018-08-19T02:03:30.265Z,14.8
2018-08-19T02:04:32.294Z,14.8
2018-08-19T02:05:34.331Z,14.7
2018-08-19T02:06:36.352Z,14.9
2018-08-19T02:07:38.389Z,14.8
2018-08-19T02:08:40.423Z,14.8
2018-08-19T02:09:42.458Z,14.8
2018-08-19T02:10:44.481Z,14.7
2018-08-19T02:11:46.520Z,14.7
2018-08-19T02:12:48.939Z,14.6
2018-08-19T02:13:50.965Z,14.7
2018-08-19T02:14:52.996Z,14.7
2018-08-19T02:15:55.043Z,14.6
2018-08-19T02:16:57.075Z,14.5
2018-08-19T02:17:59.109Z,14.5
2018-08-19T02:19:01.423Z,14.4
2018-08-19T02:20:03.730Z,14.4
2018-08-19T02:21:05.767Z,14.4
2018-08-19T02:22:08.130Z,14.5
2018-08-19T02:23:10.150Z,14.5
2018-08-19T02:24:12.493Z,14.4
2018-08-19T02:25:14.523Z,14.5
2018-08-19T02:26:16.857Z,14.5
2018-08-19T02:27:18.900Z,14.5
2018-08-19T02:28:20.923Z,14.5
2018-08-19T02:29:22.959Z,14.4
2018-08-19T02:30:24.982Z,14.4
2018-08-19T02:31:27.327Z,14.4
2018-08-19T02:32:29.348Z,14.4
2018-08-19T02:33:31.379Z,14.4
2018-08-19T02:34:33.408Z,14.4
2018-08-19T02:35:35.813Z,14.4
2018-08-19T02:36:37.856Z,14.4
2018-08-19T02:37:39.885Z,14.4
2018-08-19T02:38:41.926Z,14.3
2018-08-19T02:39:44.228Z,14.3
2018-08-19T02:40:46.557Z,14.3
2018-08-19T02:41:49.167Z,14.3
2018-08-19T02:42:51.193Z,14.3
2018-08-19T02:43:53.231Z,14.3
2018-08-19T02:44:55.256Z,14.3
2018-08-19T02:45:57.287Z,14.2
2018-08-19T02:46:59.312Z,14.2
2018-08-19T02:48:01.624Z,14
2018-08-19T02:49:03.664Z,14.1
2018-08-19T02:50:05.698Z,14.1
2018-08-19T02:51:08.038Z,14
2018-08-19T02:52:10.067Z,14
2018-08-19T02:53:12.091Z,14
2018-08-19T02:54:14.123Z,14
2018-08-19T02:55:16.159Z,14
2018-08-19T02:56:18.487Z,14.3
2018-08-19T02:57:20.528Z,14.1
2018-08-19T02:58:22.945Z,14
2018-08-19T02:59:25.747Z,14.1
2018-08-19T03:00:27.788Z,14.1
2018-08-19T03:01:30.379Z,14.1
2018-08-19T03:02:32.412Z,14.1
2018-08-19T03:03:34.722Z,14.1
2018-08-19T03:04:36.765Z,14.1
2018-08-19T03:05:39.089Z,14
2018-08-19T03:06:41.119Z,14.1
2018-08-19T03:07:43.543Z,14.1
2018-08-19T03:08:45.565Z,14.1
2018-08-19T03:09:47.606Z,14
2018-08-19T03:10:49.637Z,14.1
2018-08-19T03:11:52.060Z,14.1
2018-08-19T03:12:54.081Z,14
2018-08-19T03:13:56.122Z,14
2018-08-19T03:14:58.580Z,14
2018-08-19T03:16:00.576Z,14
2018-08-19T03:17:03.214Z,14
2018-08-19T03:18:05.235Z,14
2018-08-19T03:19:07.652Z,14
2018-08-19T03:20:09.685Z,14
2018-08-19T03:21:11.714Z,14
2018-08-19T03:22:13.741Z,14
2018-08-19T03:23:15.771Z,14
2018-08-19T03:24:17.799Z,14
2018-08-19T03:25:19.827Z,13.9
2018-08-19T03:26:21.867Z,14
2018-08-19T03:27:23.902Z,14
2018-08-19T03:28:25.926Z,14
2018-08-19T03:29:27.973Z,14.1
2018-08-19T03:30:30.285Z,14.1
2018-08-19T03:31:32.602Z,14
2018-08-19T03:32:35.346Z,13.9
2018-08-19T03:33:37.381Z,14
2018-08-19T03:34:40.086Z,14
2018-08-19T03:35:42.421Z,14
2018-08-19T03:36:44.457Z,14
2018-08-19T03:37:46.481Z,14
2018-08-19T03:38:48.902Z,14
2018-08-19T03:39:50.931Z,14
2018-08-19T03:40:53.379Z,14
2018-08-19T03:41:55.432Z,14
2018-08-19T03:42:57.455Z,14
2018-08-19T03:43:59.768Z,14.1
2018-08-19T03:45:02.667Z,14
2018-08-19T03:46:04.994Z,14
2018-08-19T03:47:07.018Z,14
2018-08-19T03:48:09.341Z,14.1
2018-08-19T03:49:11.378Z,14.1
2018-08-19T03:50:13.393Z,14.1
2018-08-19T03:51:15.431Z,14.1
2018-08-19T03:52:17.458Z,14.2
2018-08-19T03:53:20.436Z,14.2
2018-08-19T03:54:22.466Z,14.1
2018-08-19T03:55:24.512Z,14.1
2018-08-19T03:56:26.537Z,14.1
2018-08-19T03:57:28.570Z,14.1
2018-08-19T03:58:30.596Z,14.1
2018-08-19T03:59:32.613Z,14
2018-08-19T04:00:34.936Z,14
2018-08-19T04:01:36.958Z,14.1
2018-08-19T04:02:39.285Z,14.1
2018-08-19T04:03:41.307Z,14
2018-08-19T04:04:43.338Z,14
2018-08-19T04:05:45.946Z,14.1
2018-08-19T04:06:47.968Z,14.1
2018-08-19T04:07:50.291Z,14.1
2018-08-19T04:08:52.610Z,14.1
2018-08-19T04:09:54.646Z,14
2018-08-19T04:10:56.666Z,14.3
2018-08-19T04:11:58.704Z,14.1
2018-08-19T04:13:01.020Z,14.1
2018-08-19T04:14:03.052Z,14.2
2018-08-19T04:15:05.089Z,14.1
2018-08-19T04:16:07.107Z,14.1
2018-08-19T04:17:09.135Z,14.1
2018-08-19T04:18:11.456Z,14.1
2018-08-19T04:19:13.782Z,14.1
2018-08-19T04:20:16.079Z,14.2
2018-08-19T04:21:18.679Z,14.2
2018-08-19T04:22:20.709Z,14.2
2018-08-19T04:23:23.136Z,14.3
2018-08-19T04:24:25.420Z,14.2
2018-08-19T04:25:27.451Z,14.1
2018-08-19T04:26:29.476Z,14.2
2018-08-19T04:27:31.505Z,14.1
2018-08-19T04:28:33.835Z,14.2
2018-08-19T04:29:36.822Z,14.2
2018-08-19T04:30:38.852Z,14.2
2018-08-19T04:31:41.177Z,14.3
2018-08-19T04:32:43.201Z,14.2
2018-08-19T04:33:45.999Z,14.3
2018-08-19T04:34:48.345Z,14.3
2018-08-19T04:35:50.364Z,14.4
2018-08-19T04:36:52.399Z,14.3
2018-08-19T04:37:54.432Z,14.3
2018-08-19T04:38:56.468Z,14.4
2018-08-19T04:39:58.769Z,14.4
2018-08-19T04:41:00.810Z,14.5
2018-08-19T04:42:02.839Z,14.4
2018-08-19T04:43:04.876Z,14.5
2018-08-19T04:44:06.898Z,14.5
2018-08-19T04:45:08.938Z,14.6
2018-08-19T04:46:10.970Z,14.6
2018-08-19T04:47:13.004Z,14.6
2018-08-19T04:48:15.042Z,14.5
2018-08-19T04:49:17.734Z,14.6
2018-08-19T04:50:19.762Z,14.7
2018-08-19T04:51:21.788Z,14.6
2018-08-19T04:52:23.827Z,14.7
2018-08-19T04:53:25.846Z,14.7
2018-08-19T04:54:27.875Z,14.7
2018-08-19T04:55:29.913Z,14.8
2018-08-19T04:56:31.942Z,14.7
2018-08-19T04:57:34.275Z,14.8
2018-08-19T04:58:36.593Z,14.8
2018-08-19T04:59:38.613Z,14.8
2018-08-19T05:00:40.646Z,14.9
2018-08-19T05:01:42.684Z,14.9
2018-08-19T05:02:44.996Z,14.9
2018-08-19T05:03:47.030Z,14.9
2018-08-19T05:04:49.063Z,14.8
2018-08-19T05:05:51.081Z,15
2018-08-19T05:06:53.498Z,14.9
2018-08-19T05:07:56.119Z,15
2018-08-19T05:08:58.056Z,14.9
2018-08-19T05:10:00.489Z,15.1
2018-08-19T05:11:02.522Z,15
2018-08-19T05:12:05.229Z,15
2018-08-19T05:13:07.842Z,15
2018-08-19T05:14:09.865Z,15.1
2018-08-19T05:15:11.895Z,15.1
2018-08-19T05:16:13.920Z,15.1
2018-08-19T05:17:15.950Z,15.2
2018-08-19T05:18:18.289Z,15.3
2018-08-19T05:19:20.596Z,15.3
2018-08-19T05:20:22.632Z,15.4
2018-08-19T05:21:24.675Z,15.4
2018-08-19T05:22:26.723Z,15.4
2018-08-19T05:23:29.068Z,15.4
2018-08-19T05:24:31.092Z,15.4
2018-08-19T05:25:33.135Z,15.4
2018-08-19T05:26:35.154Z,15.4
2018-08-19T05:27:37.754Z,15.4
2018-08-19T05:28:39.791Z,15.4
2018-08-19T05:29:41.821Z,15.4
2018-08-19T05:30:43.854Z,15.5
2018-08-19T05:31:46.277Z,15.6
2018-08-19T05:32:48.304Z,15.6
2018-08-19T05:33:50.338Z,15.7
2018-08-19T05:34:52.379Z,15.7
2018-08-19T05:35:54.792Z,15.7
2018-08-19T05:36:56.825Z,15.8
2018-08-19T05:37:59.253Z,15.8
2018-08-19T05:39:01.246Z,15.8
2018-08-19T05:40:03.543Z,15.9
2018-08-19T05:41:05.965Z,16
2018-08-19T05:42:07.986Z,16
2018-08-19T05:43:10.025Z,16
2018-08-19T05:44:12.445Z,16.1
2018-08-19T05:45:14.479Z,16.1
2018-08-19T05:46:16.520Z,16.1
2018-08-19T05:47:18.544Z,16.1
2018-08-19T05:48:20.582Z,16.2
2018-08-19T05:49:22.610Z,16.2
2018-08-19T05:50:24.942Z,16.3
2018-08-19T05:51:26.961Z,16.3
2018-08-19T05:52:29.000Z,16.4
2018-08-19T05:53:31.028Z,16.4
2018-08-19T05:54:33.360Z,16.5
2018-08-19T05:55:35.464Z,16.6
2018-08-19T05:56:37.439Z,16.6
2018-08-19T05:57:39.480Z,16.6
2018-08-19T05:58:41.501Z,16.6
2018-08-19T05:59:43.545Z,16.6
2018-08-19T06:00:45.576Z,16.7
2018-08-19T06:01:47.601Z,16.8
2018-08-19T06:02:49.645Z,16.8
2018-08-19T06:03:51.954Z,16.9
2018-08-19T06:04:53.984Z,16.9
2018-08-19T06:05:56.018Z,17
2018-08-19T06:06:58.051Z,17
2018-08-19T06:08:00.356Z,17.1
2018-08-19T06:09:02.407Z,17.1
2018-08-19T06:10:04.442Z,17.1
2018-08-19T06:11:06.477Z,17.2
2018-08-19T06:12:09.160Z,17.2
2018-08-19T06:13:11.195Z,17.3
2018-08-19T06:14:13.223Z,17.3
2018-08-19T06:15:15.258Z,17.4
2018-08-19T06:16:17.286Z,17.4
2018-08-19T06:17:19.607Z,17.4
2018-08-19T06:18:21.643Z,17.5
2018-08-19T06:19:23.667Z,17.5
2018-08-19T06:20:25.706Z,17.5
2018-08-19T06:21:27.739Z,17.5
2018-08-19T06:22:29.781Z,17.6
2018-08-19T06:23:32.087Z,17.6
2018-08-19T06:24:34.450Z,17.6
2018-08-19T06:25:36.473Z,17.7
2018-08-19T06:26:38.506Z,17.8
2018-08-19T06:27:40.935Z,17.8
2018-08-19T06:28:42.958Z,17.8
2018-08-19T06:29:45.575Z,17.8
2018-08-19T06:30:47.610Z,17.8
2018-08-19T06:31:50.322Z,17.9
2018-08-19T06:32:52.737Z,17.9
2018-08-19T06:33:54.770Z,17.9
2018-08-19T06:34:56.891Z,18
2018-08-19T06:35:58.849Z,18
2018-08-19T06:37:01.456Z,18.1
2018-08-19T06:38:03.487Z,18.1
2018-08-19T06:39:05.524Z,18.1
2018-08-19T06:40:07.561Z,18.2
2018-08-19T06:41:09.593Z,18.3
2018-08-19T06:42:11.615Z,18.3
2018-08-19T06:43:14.228Z,18.3
2018-08-19T06:44:16.233Z,18.4
2018-08-19T06:45:18.561Z,18.4
2018-08-19T06:46:20.597Z,18.4
2018-08-19T06:47:22.630Z,18.5
2018-08-19T06:48:25.056Z,18.6
2018-08-19T06:49:27.088Z,18.6
2018-08-19T06:50:29.452Z,18.7
2018-08-19T06:51:31.493Z,18.7
2018-08-19T06:52:33.513Z,18.8
2018-08-19T06:53:35.547Z,18.8
2018-08-19T06:54:37.581Z,18.8
2018-08-19T06:55:39.616Z,18.9
2018-08-19T06:56:41.641Z,18.9
2018-08-19T06:57:43.687Z,19
2018-08-19T06:58:45.722Z,19
2018-08-19T06:59:47.760Z,19.1
2018-08-19T07:00:50.091Z,19.1
2018-08-19T07:01:52.118Z,19.2
2018-08-19T07:02:54.151Z,19.2
2018-08-19T07:03:56.229Z,19.2
2018-08-19T07:04:58.605Z,19.3
2018-08-19T07:06:01.010Z,19.3
2018-08-19T07:07:03.041Z,19.2
2018-08-19T07:08:05.078Z,19.3
2018-08-19T07:09:07.104Z,19.2
2018-08-19T07:10:09.526Z,19.3
2018-08-19T07:11:11.563Z,19.3
2018-08-19T07:12:13.608Z,19.3
2018-08-19T07:13:15.641Z,19.3
2018-08-19T07:14:17.662Z,19.2
2018-08-19T07:15:19.695Z,19.3
2018-08-19T07:16:21.731Z,19.3
2018-08-19T07:17:23.767Z,19.4
2018-08-19T07:18:26.100Z,19.4
2018-08-19T07:19:28.728Z,19.4
2018-08-19T07:20:31.163Z,19.5
2018-08-19T07:21:33.214Z,19.5
2018-08-19T07:22:35.238Z,19.5
2018-08-19T07:23:37.727Z,19.6
2018-08-19T07:24:39.702Z,19.7
2018-08-19T07:25:41.732Z,19.8
2018-08-19T07:26:43.766Z,19.9
2018-08-19T07:27:45.805Z,19.9
2018-08-19T07:28:47.845Z,20
2018-08-19T07:29:49.940Z,20
2018-08-19T07:30:52.212Z,20.1
2018-08-19T07:31:54.536Z,20.2
2018-08-19T07:32:56.573Z,20.3
2018-08-19T07:33:58.620Z,20.4
2018-08-19T07:35:00.644Z,20.4
2018-08-19T07:36:02.681Z,20.5
2018-08-19T07:37:05.246Z,20.5
2018-08-19T07:38:07.238Z,20.5
2018-08-19T07:39:09.264Z,20.7
2018-08-19T07:40:11.298Z,20.7
2018-08-19T07:41:13.339Z,20.7
2018-08-19T07:42:15.362Z,20.8
2018-08-19T07:43:18.093Z,20.9
2018-08-19T07:44:20.124Z,20.8
2018-08-19T07:45:22.156Z,21
2018-08-19T07:46:24.481Z,20.8
2018-08-19T07:47:26.531Z,20.8
2018-08-19T07:48:28.567Z,20.8
2018-08-19T07:49:30.603Z,20.8
2018-08-19T07:50:32.637Z,20.7
2018-08-19T07:51:34.729Z,20.8
2018-08-19T07:52:36.720Z,20.8
2018-08-19T07:53:38.752Z,20.9
2018-08-19T07:54:40.800Z,20.9
2018-08-19T07:55:42.835Z,20.9
2018-08-19T07:56:44.876Z,20.9
2018-08-19T07:57:46.914Z,21
2018-08-19T07:58:48.944Z,20.9
2018-08-19T07:59:50.986Z,20.9
2018-08-19T08:00:53.317Z,21
2018-08-19T08:01:55.362Z,21.1
2018-08-19T08:02:57.681Z,21.2
2018-08-19T08:03:59.725Z,21.3
2018-08-19T08:05:01.764Z,21.3
2018-08-19T08:06:03.802Z,21.4
2018-08-19T08:07:05.856Z,21.5
2018-08-19T08:08:08.454Z,21.5
2018-08-19T08:09:10.785Z,21.5
2018-08-19T08:10:12.816Z,21.5
2018-08-19T08:11:14.866Z,21.4
2018-08-19T08:12:16.894Z,21.4
2018-08-19T08:13:18.931Z,21.5
2018-08-19T08:14:21.361Z,21.5
2018-08-19T08:15:23.388Z,21.6
2018-08-19T08:16:25.437Z,21.6
2018-08-19T08:17:27.477Z,21.6
2018-08-19T08:18:29.811Z,21.4
2018-08-19T08:19:31.847Z,21.4
2018-08-19T08:20:33.895Z,21.5
2018-08-19T08:21:36.649Z,21.4
2018-08-19T08:22:38.520Z,21.4
2018-08-19T08:23:40.560Z,21.4
2018-08-19T08:24:42.585Z,21.4
2018-08-19T08:25:45.013Z,21.5
2018-08-19T08:26:47.338Z,21.5
2018-08-19T08:27:49.371Z,21.4
2018-08-19T08:28:51.423Z,21.4
2018-08-19T08:29:53.752Z,21.5
2018-08-19T08:30:55.791Z,21.4
2018-08-19T08:31:57.843Z,21.4
2018-08-19T08:32:59.878Z,21.4
2018-08-19T08:34:02.511Z,21.3
2018-08-19T08:35:04.547Z,21.3
2018-08-19T08:36:06.880Z,21.4
2018-08-19T08:37:08.907Z,21.4
2018-08-19T08:38:10.950Z,21.5
2018-08-19T08:39:13.375Z,21.4
2018-08-19T08:40:15.974Z,21.5
2018-08-19T08:41:18.303Z,21.4
2018-08-19T08:42:20.342Z,21.5
2018-08-19T08:43:22.977Z,21.6
2018-08-19T08:44:25.292Z,21.6
2018-08-19T08:45:27.345Z,21.6
2018-08-19T08:46:29.383Z,21.7
2018-08-19T08:47:31.883Z,21.8
2018-08-19T08:48:34.292Z,21.9
2018-08-19T08:49:36.315Z,21.8
2018-08-19T08:50:38.356Z,21.9
2018-08-19T08:51:40.404Z,21.9
2018-08-19T08:52:42.442Z,21.8
2018-08-19T08:53:44.471Z,21.8
2018-08-19T08:54:46.793Z,21.8
2018-08-19T08:55:48.833Z,21.8
2018-08-19T08:56:50.879Z,21.8
2018-08-19T08:57:53.208Z,22
2018-08-19T08:58:55.245Z,22
2018-08-19T08:59:57.279Z,22
2018-08-19T09:00:59.715Z,21.9
2018-08-19T09:02:02.030Z,21.8
2018-08-19T09:03:04.125Z,21.8
2018-08-19T09:04:06.386Z,21.8
2018-08-19T09:05:08.439Z,21.8
2018-08-19T09:06:10.472Z,21.9
2018-08-19T09:07:12.509Z,21.7
2018-08-19T09:08:14.543Z,21.9
2018-08-19T09:09:16.977Z,21.8
2018-08-19T09:10:19.006Z,21.8
2018-08-19T09:11:21.044Z,21.7
2018-08-19T09:12:23.086Z,21.7
2018-08-19T09:13:25.115Z,21.8
2018-08-19T09:14:27.465Z,21.6
2018-08-19T09:15:29.502Z,21.6
2018-08-19T09:16:31.936Z,21.7
2018-08-19T09:17:33.961Z,21.7
2018-08-19T09:18:36.304Z,21.7
2018-08-19T09:19:38.340Z,21.6
2018-08-19T09:20:40.375Z,21.7
2018-08-19T09:21:42.424Z,21.6
2018-08-19T09:22:44.461Z,21.7
2018-08-19T09:23:46.785Z,21.8
2018-08-19T09:24:49.132Z,21.8
2018-08-19T09:25:51.469Z,21.9
2018-08-19T09:26:53.495Z,21.7
2018-08-19T09:27:55.531Z,21.8
2018-08-19T09:28:57.852Z,21.7
2018-08-19T09:29:59.893Z,21.6
2018-08-19T09:31:02.336Z,21.6
2018-08-19T09:32:04.680Z,21.5
2018-08-19T09:33:06.718Z,21.6
2018-08-19T09:34:08.773Z,21.6
2018-08-19T09:35:10.808Z,21.7
2018-08-19T09:36:12.848Z,21.7
2018-08-19T09:37:14.890Z,21.8
2018-08-19T09:38:16.920Z,21.7
2018-08-19T09:39:19.358Z,21.6
2018-08-19T09:40:21.396Z,21.8
2018-08-19T09:41:23.444Z,21.8
2018-08-19T09:42:25.489Z,21.7
2018-08-19T09:43:27.901Z,21.9
2018-08-19T09:44:29.945Z,21.9
2018-08-19T09:45:35.472Z,21.9
2018-08-19T09:46:46.179Z,21.9
2018-08-19T09:47:58.760Z,22
2018-08-19T09:49:07.175Z,21.9
2018-08-19T09:50:15.488Z,21.9
2018-08-19T09:51:19.834Z,22
2018-08-19T09:52:23.036Z,22
2018-08-19T09:53:25.076Z,21.9
2018-08-19T09:54:27.110Z,22
2018-08-19T09:55:29.160Z,22
2018-08-19T09:56:31.762Z,22
2018-08-19T09:57:33.799Z,22
2018-08-19T09:58:35.845Z,22.1
2018-08-19T09:59:37.909Z,22
2018-08-19T10:00:39.937Z,22.1
2018-08-19T10:01:41.973Z,22
2018-08-19T10:02:44.012Z,22
2018-08-19T10:03:46.446Z,22.1
2018-08-19T10:04:48.497Z,22.1
2018-08-19T10:05:50.539Z,22.3
2018-08-19T10:06:52.581Z,22.2
2018-08-19T10:07:54.739Z,22.2
2018-08-19T10:08:58.016Z,22.3
2018-08-19T10:10:00.061Z,22.3
2018-08-19T10:11:02.101Z,22.3
2018-08-19T10:12:04.518Z,22.3
2018-08-19T10:13:07.154Z,22.2
2018-08-19T10:14:09.190Z,22.2
2018-08-19T10:15:11.524Z,22.4
2018-08-19T10:16:13.557Z,22.3
2018-08-19T10:17:15.889Z,22.4
2018-08-19T10:18:18.214Z,22.5
2018-08-19T10:19:20.535Z,22.5
2018-08-19T10:20:26.932Z,22.5
2018-08-19T10:21:29.267Z,22.4
2018-08-19T10:22:32.812Z,22.1
2018-08-19T10:23:34.856Z,22.4
2018-08-19T10:24:36.888Z,22.4
2018-08-19T10:25:38.937Z,22.5
2018-08-19T10:26:41.023Z,22.6
2018-08-19T10:27:43.018Z,22.6
2018-08-19T10:28:45.069Z,22.7
2018-08-19T10:29:47.093Z,22.8
2018-08-19T10:30:49.131Z,22.9
2018-08-19T10:31:51.570Z,23
2018-08-19T10:32:54.022Z,23
2018-08-19T10:33:57.355Z,23
2018-08-19T10:34:59.678Z,22.9
2018-08-19T10:36:01.716Z,23
2018-08-19T10:37:03.756Z,23.1
2018-08-19T10:38:05.809Z,23.2
2018-08-19T10:39:07.853Z,23.3
2018-08-19T10:40:10.229Z,23.3
2018-08-19T10:41:12.270Z,23.4
2018-08-19T10:42:14.302Z,23.4
2018-08-19T10:43:16.726Z,23.5
2018-08-19T10:44:18.766Z,23.7
2018-08-19T10:45:20.798Z,24
2018-08-19T10:46:23.554Z,24.2
2018-08-19T10:47:25.478Z,24.1
2018-08-19T10:48:27.798Z,23.9
2018-08-19T10:49:29.830Z,23.8
2018-08-19T10:50:31.891Z,23.9
2018-08-19T10:51:33.929Z,24.1
2018-08-19T10:52:35.971Z,24
2018-08-19T10:53:38.024Z,24
2018-08-19T10:54:40.056Z,24.1
2018-08-19T10:55:42.383Z,24.4
2018-08-19T10:56:44.708Z,24.6
2018-08-19T10:57:46.774Z,25.1
2018-08-19T10:58:48.805Z,24.7
2018-08-19T10:59:51.571Z,24.6
2018-08-19T11:00:53.546Z,25
2018-08-19T11:02:03.377Z,25.3
2018-08-19T11:03:06.595Z,25.3
2018-08-19T11:04:08.641Z,25.2
2018-08-19T11:05:10.676Z,25.3
2018-08-19T11:06:12.718Z,25.5
2018-08-19T11:07:14.770Z,25.4
2018-08-19T11:08:16.818Z,25.6
2018-08-19T11:09:18.860Z,25.7
2018-08-19T11:10:20.906Z,25.6
2018-08-19T11:11:22.941Z,25.5
2018-08-19T11:12:24.982Z,25.5
2018-08-19T11:13:27.093Z,25.5
2018-08-19T11:14:29.065Z,25.5
2018-08-19T11:15:31.403Z,25.9
2018-08-19T11:16:33.449Z,26
2018-08-19T11:17:35.497Z,25.9
2018-08-19T11:18:37.553Z,26.1
2018-08-19T11:19:39.593Z,25.9
2018-08-19T11:20:41.634Z,26
2018-08-19T11:21:44.062Z,26.4
2018-08-19T11:22:46.116Z,26.3
2018-08-19T11:23:48.437Z,26.6
2018-08-19T11:24:50.484Z,26.7
2018-08-19T11:25:52.544Z,27
2018-08-19T11:26:54.577Z,26.9
2018-08-19T11:27:56.929Z,26.7
2018-08-19T11:28:59.362Z,26.3
2018-08-19T11:30:01.694Z,26.6
2018-08-19T11:31:04.009Z,26.4
2018-08-19T11:32:06.067Z,26
2018-08-19T11:33:08.109Z,26.2
2018-08-19T11:34:10.149Z,26.5
2018-08-19T11:35:12.202Z,26.5
2018-08-19T11:36:14.531Z,26.4
2018-08-19T11:37:16.864Z,26
2018-08-19T11:38:18.905Z,26.3
2018-08-19T11:39:21.245Z,26.8
2018-08-19T11:40:23.301Z,27
2018-08-19T11:41:25.347Z,27.4
2018-08-19T11:42:27.400Z,26.8
2018-08-19T11:43:29.843Z,27
2018-08-19T11:44:31.763Z,27
2018-08-19T11:45:33.811Z,27
2018-08-19T11:46:36.249Z,27.3
2018-08-19T11:47:38.573Z,27.3
2018-08-19T11:48:40.632Z,27.3
2018-08-19T11:49:42.663Z,27.5
2018-08-19T11:50:44.995Z,27.4
2018-08-19T11:51:47.341Z,27.3
2018-08-19T11:52:49.668Z,27.6
2018-08-19T11:53:52.097Z,27.5
2018-08-19T11:54:54.145Z,27.4
2018-08-19T11:55:56.197Z,27.2
2018-08-19T11:56:58.232Z,27.4
2018-08-19T11:58:00.571Z,27.7
2018-08-19T11:59:02.917Z,27.6
2018-08-19T12:00:04.955Z,27.6
2018-08-19T12:01:08.211Z,27.5
2018-08-19T12:02:11.213Z,27.5
2018-08-19T12:03:13.649Z,27.7
2018-08-19T12:04:15.688Z,27.7
2018-08-19T12:05:18.041Z,28.1
2018-08-19T12:06:20.095Z,27.8
2018-08-19T12:07:22.434Z,27.6
2018-08-19T12:08:24.492Z,26.8
2018-08-19T12:09:26.919Z,27.3
2018-08-19T12:10:29.483Z,27.6
2018-08-19T12:11:31.910Z,27.7
2018-08-19T12:12:34.128Z,27.5
2018-08-19T12:13:36.218Z,27.1
2018-08-19T12:14:38.265Z,27.7
2018-08-19T12:15:40.477Z,27.7
2018-08-19T12:16:42.854Z,27.5
2018-08-19T12:17:45.020Z,27.6
2018-08-19T12:18:47.424Z,27.7
2018-08-19T12:19:49.761Z,27.6
2018-08-19T12:20:51.801Z,27.9
2018-08-19T12:21:54.170Z,28
2018-08-19T12:22:56.333Z,27.3
2018-08-19T12:23:58.594Z,27.2
2018-08-19T12:25:00.688Z,27.4
2018-08-19T12:26:03.016Z,27.8
2018-08-19T12:27:05.062Z,28.3
2018-08-19T12:28:07.576Z,28.5
2018-08-19T12:29:09.630Z,28.6
2018-08-19T12:30:11.671Z,28.7
2018-08-19T12:31:13.715Z,28.7
2018-08-19T12:32:15.768Z,28.7
2018-08-19T12:33:17.802Z,28.8
2018-08-19T12:34:19.860Z,29
2018-08-19T12:35:21.909Z,28.9
2018-08-19T12:36:24.351Z,28.8
2018-08-19T12:37:26.786Z,28.5
2018-08-19T12:38:29.220Z,28.8
2018-08-19T12:39:31.552Z,28.5
2018-08-19T12:40:33.597Z,28.8
2018-08-19T12:41:35.665Z,28.8
2018-08-19T12:42:37.992Z,28.4
2018-08-19T12:43:40.043Z,28.7
2018-08-19T12:44:43.100Z,29.2
2018-08-19T12:45:45.120Z,28.9
2018-08-19T12:46:47.161Z,28.6
2018-08-19T12:47:49.211Z,28.3
2018-08-19T12:49:04.179Z,28.5
2018-08-19T12:50:06.239Z,28.8
2018-08-19T12:51:08.286Z,28.8
2018-08-19T12:52:10.334Z,29.2
2018-08-19T12:53:12.399Z,28.9
2018-08-19T12:54:14.439Z,29
2018-08-19T12:55:16.492Z,28.9
2018-08-19T12:56:18.549Z,29.1
2018-08-19T12:57:20.890Z,28.7
2018-08-19T12:58:23.231Z,28.7
2018-08-19T12:59:25.276Z,28.6
2018-08-19T13:00:27.328Z,29
2018-08-19T13:01:29.376Z,29
2018-08-19T13:02:31.435Z,29
2018-08-19T13:03:33.475Z,29
2018-08-19T13:04:35.531Z,29.4
2018-08-19T13:05:37.584Z,29.5
2018-08-19T13:06:39.626Z,29.5
2018-08-19T13:07:41.684Z,29.6
2018-08-19T13:08:43.735Z,29.8
2018-08-19T13:09:45.793Z,29.7
2018-08-19T13:10:48.117Z,29
2018-08-19T13:11:50.180Z,29
2018-08-19T13:12:52.536Z,29.1
2018-08-19T13:13:54.581Z,29.3
2018-08-19T13:14:56.645Z,29.3
2018-08-19T13:15:58.688Z,29.6
2018-08-19T13:17:01.031Z,29.7
2018-08-19T13:18:03.084Z,29.5
2018-08-19T13:19:05.143Z,29.7
2018-08-19T13:20:07.187Z,29.4
2018-08-19T13:21:09.241Z,29.4
2018-08-19T13:22:11.291Z,29.1
2018-08-19T13:23:13.348Z,29.6
2018-08-19T13:24:15.402Z,29.7
2018-08-19T13:25:17.455Z,29.4
2018-08-19T13:26:19.497Z,29.6
2018-08-19T13:27:21.562Z,29.6
2018-08-19T13:28:23.610Z,29.2
2018-08-19T13:29:25.659Z,29.5
2018-08-19T13:30:27.708Z,29.2
2018-08-19T13:31:29.796Z,29
2018-08-19T13:32:32.160Z,29.2
2018-08-19T13:33:34.210Z,29.1
2018-08-19T13:34:36.266Z,29.4
2018-08-19T13:35:38.611Z,29.5
2018-08-19T13:36:40.965Z,29.3
2018-08-19T13:37:43.301Z,29.4
2018-08-19T13:38:45.352Z,29.4
2018-08-19T13:39:47.414Z,29.4
2018-08-19T13:40:49.456Z,28.9
2018-08-19T13:41:51.796Z,29.5
2018-08-19T13:42:54.131Z,29.3
2018-08-19T13:43:56.192Z,29.8
2018-08-19T13:44:58.233Z,29.5
2018-08-19T13:46:00.282Z,30.2
2018-08-19T13:47:02.339Z,29.9
2018-08-19T13:48:04.381Z,29.7
2018-08-19T13:49:06.448Z,30
2018-08-19T13:50:08.492Z,29.8
2018-08-19T13:51:10.572Z,30
2018-08-19T13:52:12.908Z,29.9
2018-08-19T13:53:14.969Z,30
2018-08-19T13:54:17.022Z,29.8
2018-08-19T13:55:19.483Z,29.9
2018-08-19T13:56:21.534Z,29.6
2018-08-19T13:57:23.583Z,29.5